Ecuador Ama la vida
Dirección General de Aviación Civil
IFIS
Lunes 22 de Octubre del 2018
Buscar por aerodromo o helipuerto
Ingrese nombre de aeródromo, localidad o designador OACI:
TAF: SEQM 220915Z 2212/2312 VRB03KT 9999 SCT030 BKN300 FM221800 36010KT 9999 SCT040 SCT300 FM230000 03004KT 9999 FEW010 SCT030 FM230600 VRB03KT 9999 SCT005 BKN020 TX25/2219Z TN09/2311Z
TAF del 22/10/2018 a las 09:15 UTC
Período de validez: desde el 22 a las 12:00 UTC hasta el 23 a las 12:00 UTC
Viento: dirección variable, velocidad 3 nudos
Visibilidad reinante: 10 km o más
Nubes: Dispersas a 3000 pies sobre el nivel del terreno
Nubes: Fragmentadas a 30000 pies sobre el nivel del terreno
Desde el 22 a las 18:00 UTC
Viento: dirección 360 grados, velocidad 10 nudos
Visibilidad reinante: 10 km o más
Nubes: Dispersas a 4000 pies sobre el nivel del terreno
Nubes: Dispersas a 30000 pies sobre el nivel del terreno
Desde el 23 a las 00:00 UTC
Viento: dirección 030 grados, velocidad 4 nudos
Visibilidad reinante: 10 km o más
Nubes: Escasas a 1000 pies sobre el nivel del terreno
Nubes: Dispersas a 3000 pies sobre el nivel del terreno
Desde el 23 a las 06:00 UTC
Viento: dirección variable, velocidad 3 nudos
Visibilidad reinante: 10 km o más
Nubes: Dispersas a 500 pies sobre el nivel del terreno
Nubes: Fragmentadas a 2000 pies sobre el nivel del terreno
Temperatura máxima: 25ºC el 22 a las 19:00 UTC
Temperatura mínima: 9ºC el 23 a las 11:00 UTC